sensor_id;sensor_type;location;lat;lon;timestamp;P1;durP1;ratioP1;P2;durP2;ratioP2
21527;SDS011;10925;49.102;-0.370;2022-12-18T00:01:26;48.80;;;20.80;;
21527;SDS011;10925;49.102;-0.370;2022-12-18T00:03:54;46.75;;;20.08;;
21527;SDS011;10925;49.102;-0.370;2022-12-18T00:06:22;44.80;;;19.67;;
21527;SDS011;10925;49.102;-0.370;2022-12-18T00:08:48;45.30;;;19.70;;
21527;SDS011;10925;49.102;-0.370;2022-12-18T00:11:19;42.92;;;19.30;;
21527;SDS011;10925;49.102;-0.370;2022-12-18T00:13:46;46.58;;;19.02;;
21527;SDS011;10925;49.102;-0.370;2022-12-18T00:16:14;49.05;;;21.40;;
21527;SDS011;10925;49.102;-0.370;2022-12-18T00:18:41;50.63;;;19.95;;
21527;SDS011;10925;49.102;-0.370;2022-12-18T00:21:09;42.55;;;19.77;;
21527;SDS011;10925;49.102;-0.370;2022-12-18T00:23:35;50.95;;;20.98;;
21527;SDS011;10925;49.102;-0.370;2022-12-18T00:26:06;51.92;;;21.17;;
21527;SDS011;10925;49.102;-0.370;2022-12-18T00:28:33;48.92;;;21.05;;
21527;SDS011;10925;49.102;-0.370;2022-12-18T00:31:00;54.35;;;22.40;;
21527;SDS011;10925;49.102;-0.370;2022-12-18T00:33:27;48.90;;;20.52;;
21527;SDS011;10925;49.102;-0.370;2022-12-18T00:35:53;51.13;;;20.98;;
21527;SDS011;10925;49.102;-0.370;2022-12-18T00:38:20;47.47;;;19.88;;
21527;SDS011;10925;49.102;-0.370;2022-12-18T00:40:49;53.33;;;21.80;;
21527;SDS011;10925;49.102;-0.370;2022-12-18T00:43:15;47.10;;;20.73;;
21527;SDS011;10925;49.102;-0.370;2022-12-18T00:45:42;47.13;;;19.33;;
21527;SDS011;10925;49.102;-0.370;2022-12-18T00:48:10;50.33;;;21.65;;
21527;SDS011;10925;49.102;-0.370;2022-12-18T00:50:36;56.70;;;23.10;;
21527;SDS011;10925;49.102;-0.370;2022-12-18T00:53:02;51.17;;;20.83;;
21527;SDS011;10925;49.102;-0.370;2022-12-18T00:55:29;54.88;;;21.90;;
21527;SDS011;10925;49.102;-0.370;2022-12-18T00:57:55;52.03;;;20.50;;
21527;SDS011;10925;49.102;-0.370;2022-12-18T01:00:21;50.72;;;20.80;;
21527;SDS011;10925;49.102;-0.370;2022-12-18T01:02:47;51.28;;;21.70;;
21527;SDS011;10925;49.102;-0.370;2022-12-18T01:05:13;49.47;;;20.63;;
21527;SDS011;10925;49.102;-0.370;2022-12-18T01:07:38;51.67;;;21.35;;
21527;SDS011;10925;49.102;-0.370;2022-12-18T01:10:05;48.47;;;20.60;;
21527;SDS011;10925;49.102;-0.370;2022-12-18T01:12:34;48.65;;;20.67;;
21527;SDS011;10925;49.102;-0.370;2022-12-18T01:15:01;53.30;;;22.27;;
21527;SDS011;10925;49.102;-0.370;2022-12-18T01:17:26;52.88;;;21.27;;
21527;SDS011;10925;49.102;-0.370;2022-12-18T01:19:52;48.75;;;21.55;;
21527;SDS011;10925;49.102;-0.370;2022-12-18T01:22:17;50.25;;;20.75;;
21527;SDS011;10925;49.102;-0.370;2022-12-18T01:24:43;52.22;;;21.60;;
21527;SDS011;10925;49.102;-0.370;2022-12-18T01:27:08;47.35;;;20.05;;
21527;SDS011;10925;49.102;-0.370;2022-12-18T01:29:33;51.83;;;20.58;;
21527;SDS011;10925;49.102;-0.370;2022-12-18T01:31:59;52.63;;;21.83;;
21527;SDS011;10925;49.102;-0.370;2022-12-18T01:34:28;48.90;;;20.45;;
21527;SDS011;10925;49.102;-0.370;2022-12-18T01:36:55;46.20;;;19.95;;
21527;SDS011;10925;49.102;-0.370;2022-12-18T01:39:20;44.45;;;19.77;;
21527;SDS011;10925;49.102;-0.370;2022-12-18T01:41:46;52.58;;;21.67;;
21527;SDS011;10925;49.102;-0.370;2022-12-18T01:47:56;46.38;;;20.33;;
21527;SDS011;10925;49.102;-0.370;2022-12-18T01:52:41;50.60;;;20.25;;
21527;SDS011;10925;49.102;-0.370;2022-12-18T01:55:07;42.45;;;18.73;;
21527;SDS011;10925;49.102;-0.370;2022-12-18T01:57:35;51.75;;;20.45;;
21527;SDS011;10925;49.102;-0.370;2022-12-18T02:00:04;48.95;;;20.83;;
21527;SDS011;10925;49.102;-0.370;2022-12-18T02:02:30;49.35;;;19.67;;
21527;SDS011;10925;49.102;-0.370;2022-12-18T02:04:57;47.85;;;20.15;;
21527;SDS011;10925;49.102;-0.370;2022-12-18T02:12:46;47.17;;;20.08;;
21527;SDS011;10925;49.102;-0.370;2022-12-18T02:15:16;54.75;;;21.90;;
21527;SDS011;10925;49.102;-0.370;2022-12-18T02:17:50;53.47;;;20.73;;
21527;SDS011;10925;49.102;-0.370;2022-12-18T02:20:27;52.28;;;21.95;;
21527;SDS011;10925;49.102;-0.370;2022-12-18T02:25:40;47.13;;;19.42;;
21527;SDS011;10925;49.102;-0.370;2022-12-18T02:28:12;51.03;;;20.42;;
21527;SDS011;10925;49.102;-0.370;2022-12-18T02:30:39;56.33;;;23.08;;
21527;SDS011;10925;49.102;-0.370;2022-12-18T02:33:07;50.40;;;21.52;;
21527;SDS011;10925;49.102;-0.370;2022-12-18T02:35:37;53.58;;;21.92;;
21527;SDS011;10925;49.102;-0.370;2022-12-18T02:38:05;54.90;;;23.48;;
21527;SDS011;10925;49.102;-0.370;2022-12-18T02:40:34;54.92;;;21.83;;
21527;SDS011;10925;49.102;-0.370;2022-12-18T02:43:02;52.42;;;21.58;;
21527;SDS011;10925;49.102;-0.370;2022-12-18T02:45:29;53.13;;;21.52;;
21527;SDS011;10925;49.102;-0.370;2022-12-18T02:47:56;50.50;;;21.77;;
21527;SDS011;10925;49.102;-0.370;2022-12-18T02:50:36;46.17;;;19.52;;
21527;SDS011;10925;49.102;-0.370;2022-12-18T03:00:39;47.35;;;19.95;;
21527;SDS011;10925;49.102;-0.370;2022-12-18T03:05:40;47.45;;;21.17;;
21527;SDS011;10925;49.102;-0.370;2022-12-18T03:08:10;53.55;;;21.63;;
21527;SDS011;10925;49.102;-0.370;2022-12-18T03:10:42;49.90;;;20.80;;
21527;SDS011;10925;49.102;-0.370;2022-12-18T03:13:14;53.17;;;21.70;;
21527;SDS011;10925;49.102;-0.370;2022-12-18T03:15:49;46.13;;;20.80;;
21527;SDS011;10925;49.102;-0.370;2022-12-18T03:18:30;57.95;;;21.15;;
21527;SDS011;10925;49.102;-0.370;2022-12-18T03:20:58;48.83;;;21.00;;
21527;SDS011;10925;49.102;-0.370;2022-12-18T03:23:25;50.05;;;21.27;;
21527;SDS011;10925;49.102;-0.370;2022-12-18T03:25:55;49.70;;;19.73;;
21527;SDS011;10925;49.102;-0.370;2022-12-18T03:28:24;49.58;;;20.05;;
21527;SDS011;10925;49.102;-0.370;2022-12-18T03:30:59;53.22;;;20.35;;
21527;SDS011;10925;49.102;-0.370;2022-12-18T03:33:31;47.63;;;18.77;;
21527;SDS011;10925;49.102;-0.370;2022-12-18T03:35:59;47.53;;;19.58;;
21527;SDS011;10925;49.102;-0.370;2022-12-18T03:38:27;48.65;;;19.42;;
21527;SDS011;10925;49.102;-0.370;2022-12-18T03:46:03;53.50;;;21.30;;
21527;SDS011;10925;49.102;-0.370;2022-12-18T03:48:31;50.70;;;19.83;;
21527;SDS011;10925;49.102;-0.370;2022-12-18T03:56:04;51.15;;;20.35;;
21527;SDS011;10925;49.102;-0.370;2022-12-18T03:58:37;44.25;;;19.30;;
21527;SDS011;10925;49.102;-0.370;2022-12-18T04:01:03;45.88;;;19.73;;
21527;SDS011;10925;49.102;-0.370;2022-12-18T04:03:34;45.88;;;18.95;;
21527;SDS011;10925;49.102;-0.370;2022-12-18T04:06:02;46.33;;;20.15;;
21527;SDS011;10925;49.102;-0.370;2022-12-18T04:08:28;48.42;;;20.23;;
21527;SDS011;10925;49.102;-0.370;2022-12-18T04:11:01;45.80;;;20.27;;
21527;SDS011;10925;49.102;-0.370;2022-12-18T04:13:29;48.20;;;20.38;;
21527;SDS011;10925;49.102;-0.370;2022-12-18T04:15:58;49.78;;;20.88;;
21527;SDS011;10925;49.102;-0.370;2022-12-18T04:18:26;46.92;;;20.67;;
21527;SDS011;10925;49.102;-0.370;2022-12-18T04:20:52;47.10;;;20.08;;
21527;SDS011;10925;49.102;-0.370;2022-12-18T04:23:19;53.70;;;22.38;;
21527;SDS011;10925;49.102;-0.370;2022-12-18T04:25:47;52.20;;;21.05;;
21527;SDS011;10925;49.102;-0.370;2022-12-18T04:28:21;45.33;;;20.88;;
21527;SDS011;10925;49.102;-0.370;2022-12-18T04:30:48;51.17;;;20.88;;
21527;SDS011;10925;49.102;-0.370;2022-12-18T04:33:15;52.28;;;20.25;;
21527;SDS011;10925;49.102;-0.370;2022-12-18T04:35:42;49.33;;;20.52;;
21527;SDS011;10925;49.102;-0.370;2022-12-18T04:38:09;48.97;;;19.33;;
21527;SDS011;10925;49.102;-0.370;2022-12-18T04:40:37;44.10;;;18.27;;
21527;SDS011;10925;49.102;-0.370;2022-12-18T04:43:10;45.10;;;18.42;;
21527;SDS011;10925;49.102;-0.370;2022-12-18T04:45:37;49.17;;;20.38;;
21527;SDS011;10925;49.102;-0.370;2022-12-18T04:48:05;47.40;;;20.42;;
21527;SDS011;10925;49.102;-0.370;2022-12-18T04:50:32;46.95;;;21.27;;
21527;SDS011;10925;49.102;-0.370;2022-12-18T04:52:59;46.67;;;20.10;;
21527;SDS011;10925;49.102;-0.370;2022-12-18T04:55:26;46.92;;;19.08;;
21527;SDS011;10925;49.102;-0.370;2022-12-18T04:57:53;43.70;;;19.80;;
21527;SDS011;10925;49.102;-0.370;2022-12-18T05:00:19;49.22;;;20.48;;
21527;SDS011;10925;49.102;-0.370;2022-12-18T05:02:46;47.08;;;20.83;;
21527;SDS011;10925;49.102;-0.370;2022-12-18T05:05:13;52.20;;;21.67;;
21527;SDS011;10925;49.102;-0.370;2022-12-18T05:07:42;51.30;;;22.17;;
21527;SDS011;10925;49.102;-0.370;2022-12-18T05:10:09;46.40;;;20.38;;
21527;SDS011;10925;49.102;-0.370;2022-12-18T05:12:42;49.95;;;21.15;;
21527;SDS011;10925;49.102;-0.370;2022-12-18T05:15:29;47.53;;;19.88;;
21527;SDS011;10925;49.102;-0.370;2022-12-18T05:17:55;45.70;;;20.08;;
21527;SDS011;10925;49.102;-0.370;2022-12-18T05:20:22;48.72;;;21.20;;
21527;SDS011;10925;49.102;-0.370;2022-12-18T05:22:49;45.63;;;20.05;;
21527;SDS011;10925;49.102;-0.370;2022-12-18T05:25:16;52.70;;;21.70;;
21527;SDS011;10925;49.102;-0.370;2022-12-18T05:27:43;47.67;;;20.67;;
21527;SDS011;10925;49.102;-0.370;2022-12-18T05:30:10;44.90;;;20.17;;
21527;SDS011;10925;49.102;-0.370;2022-12-18T05:32:37;49.85;;;20.73;;
21527;SDS011;10925;49.102;-0.370;2022-12-18T05:35:05;47.25;;;21.02;;
21527;SDS011;10925;49.102;-0.370;2022-12-18T05:37:32;48.35;;;19.92;;
21527;SDS011;10925;49.102;-0.370;2022-12-18T05:40:06;47.08;;;19.73;;
21527;SDS011;10925;49.102;-0.370;2022-12-18T05:42:32;45.90;;;19.85;;
21527;SDS011;10925;49.102;-0.370;2022-12-18T05:44:59;46.47;;;19.73;;
21527;SDS011;10925;49.102;-0.370;2022-12-18T05:47:26;48.05;;;20.30;;
21527;SDS011;10925;49.102;-0.370;2022-12-18T05:49:51;45.00;;;20.45;;
21527;SDS011;10925;49.102;-0.370;2022-12-18T05:52:17;58.45;;;23.15;;
21527;SDS011;10925;49.102;-0.370;2022-12-18T05:54:44;48.42;;;20.23;;
21527;SDS011;10925;49.102;-0.370;2022-12-18T05:57:09;51.00;;;20.98;;
21527;SDS011;10925;49.102;-0.370;2022-12-18T05:59:35;47.85;;;21.20;;
21527;SDS011;10925;49.102;-0.370;2022-12-18T06:02:02;46.80;;;19.85;;
21527;SDS011;10925;49.102;-0.370;2022-12-18T06:04:28;48.42;;;21.33;;
21527;SDS011;10925;49.102;-0.370;2022-12-18T06:06:55;50.80;;;20.90;;
21527;SDS011;10925;49.102;-0.370;2022-12-18T06:09:22;45.78;;;19.70;;
21527;SDS011;10925;49.102;-0.370;2022-12-18T06:11:49;41.72;;;19.33;;
21527;SDS011;10925;49.102;-0.370;2022-12-18T06:14:17;51.20;;;20.35;;
21527;SDS011;10925;49.102;-0.370;2022-12-18T06:16:44;50.25;;;20.55;;
21527;SDS011;10925;49.102;-0.370;2022-12-18T06:19:14;50.85;;;20.02;;
21527;SDS011;10925;49.102;-0.370;2022-12-18T06:21:39;52.75;;;21.67;;
21527;SDS011;10925;49.102;-0.370;2022-12-18T06:24:05;52.55;;;21.25;;
21527;SDS011;10925;49.102;-0.370;2022-12-18T06:26:30;47.22;;;20.38;;
21527;SDS011;10925;49.102;-0.370;2022-12-18T06:28:57;47.60;;;21.85;;
21527;SDS011;10925;49.102;-0.370;2022-12-18T06:31:23;49.38;;;22.33;;
21527;SDS011;10925;49.102;-0.370;2022-12-18T06:38:40;44.55;;;20.52;;
21527;SDS011;10925;49.102;-0.370;2022-12-18T06:41:14;50.90;;;21.75;;
21527;SDS011;10925;49.102;-0.370;2022-12-18T06:43:41;44.70;;;19.75;;
21527;SDS011;10925;49.102;-0.370;2022-12-18T06:46:07;59.97;;;22.27;;
21527;SDS011;10925;49.102;-0.370;2022-12-18T06:48:34;54.17;;;23.05;;
21527;SDS011;10925;49.102;-0.370;2022-12-18T06:51:01;47.78;;;20.02;;
21527;SDS011;10925;49.102;-0.370;2022-12-18T06:53:28;49.97;;;20.90;;
21527;SDS011;10925;49.102;-0.370;2022-12-18T06:55:59;49.78;;;20.67;;
21527;SDS011;10925;49.102;-0.370;2022-12-18T06:58:33;53.05;;;20.58;;
21527;SDS011;10925;49.102;-0.370;2022-12-18T07:01:05;49.08;;;22.63;;
21527;SDS011;10925;49.102;-0.370;2022-12-18T07:03:32;50.10;;;20.75;;
21527;SDS011;10925;49.102;-0.370;2022-12-18T07:05:59;46.40;;;20.33;;
21527;SDS011;10925;49.102;-0.370;2022-12-18T07:08:24;45.03;;;19.38;;
21527;SDS011;10925;49.102;-0.370;2022-12-18T07:10:50;48.03;;;19.88;;
21527;SDS011;10925;49.102;-0.370;2022-12-18T07:13:29;48.38;;;20.55;;
21527;SDS011;10925;49.102;-0.370;2022-12-18T07:16:06;43.92;;;20.55;;
21527;SDS011;10925;49.102;-0.370;2022-12-18T07:18:31;48.83;;;21.48;;
21527;SDS011;10925;49.102;-0.370;2022-12-18T07:21:02;48.72;;;21.73;;
21527;SDS011;10925;49.102;-0.370;2022-12-18T07:23:28;53.53;;;23.27;;
21527;SDS011;10925;49.102;-0.370;2022-12-18T07:25:55;48.60;;;21.80;;
21527;SDS011;10925;49.102;-0.370;2022-12-18T07:28:25;47.88;;;21.27;;
21527;SDS011;10925;49.102;-0.370;2022-12-18T07:30:51;47.70;;;21.00;;
21527;SDS011;10925;49.102;-0.370;2022-12-18T07:33:19;48.10;;;22.00;;
21527;SDS011;10925;49.102;-0.370;2022-12-18T07:35:44;47.60;;;22.15;;
21527;SDS011;10925;49.102;-0.370;2022-12-18T07:38:11;47.25;;;22.52;;
21527;SDS011;10925;49.102;-0.370;2022-12-18T07:40:37;43.33;;;21.00;;
21527;SDS011;10925;49.102;-0.370;2022-12-18T07:43:04;50.25;;;22.40;;
21527;SDS011;10925;49.102;-0.370;2022-12-18T07:45:31;53.67;;;23.17;;
21527;SDS011;10925;49.102;-0.370;2022-12-18T07:47:58;49.03;;;23.35;;
21527;SDS011;10925;49.102;-0.370;2022-12-18T07:50:23;53.40;;;22.67;;
21527;SDS011;10925;49.102;-0.370;2022-12-18T07:52:49;53.90;;;24.30;;
21527;SDS011;10925;49.102;-0.370;2022-12-18T07:55:15;47.10;;;21.08;;
21527;SDS011;10925;49.102;-0.370;2022-12-18T07:57:41;49.55;;;22.65;;
21527;SDS011;10925;49.102;-0.370;2022-12-18T08:00:07;54.33;;;21.88;;
21527;SDS011;10925;49.102;-0.370;2022-12-18T08:02:37;55.13;;;21.00;;
21527;SDS011;10925;49.102;-0.370;2022-12-18T08:05:04;53.38;;;22.67;;
21527;SDS011;10925;49.102;-0.370;2022-12-18T08:07:32;59.78;;;23.13;;
21527;SDS011;10925;49.102;-0.370;2022-12-18T08:09:59;46.90;;;21.30;;
21527;SDS011;10925;49.102;-0.370;2022-12-18T08:12:24;51.35;;;21.88;;
21527;SDS011;10925;49.102;-0.370;2022-12-18T08:14:51;47.33;;;21.15;;
21527;SDS011;10925;49.102;-0.370;2022-12-18T08:17:18;50.67;;;21.80;;
21527;SDS011;10925;49.102;-0.370;2022-12-18T08:19:45;51.15;;;22.60;;
21527;SDS011;10925;49.102;-0.370;2022-12-18T08:22:12;57.90;;;24.23;;
21527;SDS011;10925;49.102;-0.370;2022-12-18T08:24:39;50.80;;;21.23;;
21527;SDS011;10925;49.102;-0.370;2022-12-18T08:27:04;55.88;;;22.70;;
21527;SDS011;10925;49.102;-0.370;2022-12-18T08:29:29;49.88;;;20.60;;
21527;SDS011;10925;49.102;-0.370;2022-12-18T08:31:55;60.10;;;27.13;;
21527;SDS011;10925;49.102;-0.370;2022-12-18T08:34:22;73.20;;;31.15;;
21527;SDS011;10925;49.102;-0.370;2022-12-18T08:36:49;91.40;;;36.38;;
21527;SDS011;10925;49.102;-0.370;2022-12-18T08:39:16;53.55;;;26.58;;
21527;SDS011;10925;49.102;-0.370;2022-12-18T08:41:42;69.43;;;25.25;;
21527;SDS011;10925;49.102;-0.370;2022-12-18T08:44:28;73.38;;;28.23;;
21527;SDS011;10925;49.102;-0.370;2022-12-18T08:47:11;90.88;;;33.83;;
21527;SDS011;10925;49.102;-0.370;2022-12-18T08:49:37;129.65;;;48.03;;
21527;SDS011;10925;49.102;-0.370;2022-12-18T08:52:03;61.90;;;26.65;;
21527;SDS011;10925;49.102;-0.370;2022-12-18T08:54:30;53.40;;;22.17;;
21527;SDS011;10925;49.102;-0.370;2022-12-18T08:56:57;46.03;;;22.00;;
21527;SDS011;10925;49.102;-0.370;2022-12-18T08:59:24;44.03;;;18.52;;
21527;SDS011;10925;49.102;-0.370;2022-12-18T09:01:49;42.83;;;21.02;;
21527;SDS011;10925;49.102;-0.370;2022-12-18T09:04:14;51.53;;;21.00;;
21527;SDS011;10925;49.102;-0.370;2022-12-18T09:06:41;46.13;;;19.90;;
21527;SDS011;10925;49.102;-0.370;2022-12-18T09:09:08;50.25;;;21.65;;
21527;SDS011;10925;49.102;-0.370;2022-12-18T09:11:35;47.08;;;19.27;;
21527;SDS011;10925;49.102;-0.370;2022-12-18T09:14:02;43.95;;;19.75;;
21527;SDS011;10925;49.102;-0.370;2022-12-18T09:16:30;52.50;;;20.80;;
21527;SDS011;10925;49.102;-0.370;2022-12-18T09:18:58;45.80;;;20.63;;
21527;SDS011;10925;49.102;-0.370;2022-12-18T09:21:29;38.22;;;19.45;;
21527;SDS011;10925;49.102;-0.370;2022-12-18T09:23:55;40.80;;;18.60;;
21527;SDS011;10925;49.102;-0.370;2022-12-18T09:26:22;35.80;;;17.88;;
21527;SDS011;10925;49.102;-0.370;2022-12-18T09:28:49;23.35;;;12.02;;
21527;SDS011;10925;49.102;-0.370;2022-12-18T09:31:15;33.10;;;13.95;;
21527;SDS011;10925;49.102;-0.370;2022-12-18T09:33:41;33.55;;;15.75;;
21527;SDS011;10925;49.102;-0.370;2022-12-18T09:36:09;35.17;;;16.83;;
21527;SDS011;10925;49.102;-0.370;2022-12-18T09:38:36;35.25;;;16.17;;
21527;SDS011;10925;49.102;-0.370;2022-12-18T09:41:06;35.55;;;15.63;;
21527;SDS011;10925;49.102;-0.370;2022-12-18T09:44:01;30.05;;;14.55;;
21527;SDS011;10925;49.102;-0.370;2022-12-18T09:46:28;36.30;;;16.17;;
21527;SDS011;10925;49.102;-0.370;2022-12-18T09:48:55;37.60;;;15.65;;
21527;SDS011;10925;49.102;-0.370;2022-12-18T09:51:23;30.92;;;15.13;;
21527;SDS011;10925;49.102;-0.370;2022-12-18T09:53:59;35.65;;;16.38;;
21527;SDS011;10925;49.102;-0.370;2022-12-18T09:56:28;33.55;;;16.02;;
21527;SDS011;10925;49.102;-0.370;2022-12-18T09:58:57;33.50;;;16.45;;
21527;SDS011;10925;49.102;-0.370;2022-12-18T10:01:24;32.67;;;15.43;;
21527;SDS011;10925;49.102;-0.370;2022-12-18T10:04:05;34.65;;;15.30;;
21527;SDS011;10925;49.102;-0.370;2022-12-18T10:06:36;34.88;;;15.30;;
21527;SDS011;10925;49.102;-0.370;2022-12-18T10:09:06;35.95;;;16.17;;
21527;SDS011;10925;49.102;-0.370;2022-12-18T10:16:42;29.85;;;14.18;;
21527;SDS011;10925;49.102;-0.370;2022-12-18T10:19:35;28.70;;;13.55;;
21527;SDS011;10925;49.102;-0.370;2022-12-18T10:27:16;34.47;;;16.17;;
21527;SDS011;10925;49.102;-0.370;2022-12-18T10:29:43;37.17;;;17.25;;
21527;SDS011;10925;49.102;-0.370;2022-12-18T10:32:22;29.25;;;13.98;;
21527;SDS011;10925;49.102;-0.370;2022-12-18T10:34:48;28.30;;;13.30;;
21527;SDS011;10925;49.102;-0.370;2022-12-18T10:37:25;30.63;;;14.48;;
21527;SDS011;10925;49.102;-0.370;2022-12-18T10:42:32;31.25;;;14.68;;
21527;SDS011;10925;49.102;-0.370;2022-12-18T10:45:01;26.40;;;13.57;;
21527;SDS011;10925;49.102;-0.370;2022-12-18T10:47:27;27.60;;;14.38;;
21527;SDS011;10925;49.102;-0.370;2022-12-18T10:49:53;33.05;;;15.10;;
21527;SDS011;10925;49.102;-0.370;2022-12-18T10:52:21;30.60;;;15.23;;
21527;SDS011;10925;49.102;-0.370;2022-12-18T10:54:51;24.00;;;12.45;;
21527;SDS011;10925;49.102;-0.370;2022-12-18T10:57:29;36.60;;;17.23;;
21527;SDS011;10925;49.102;-0.370;2022-12-18T10:59:58;28.92;;;14.32;;
21527;SDS011;10925;49.102;-0.370;2022-12-18T11:02:33;27.45;;;14.27;;
21527;SDS011;10925;49.102;-0.370;2022-12-18T11:04:59;23.77;;;12.90;;
21527;SDS011;10925;49.102;-0.370;2022-12-18T11:07:24;30.20;;;13.63;;
21527;SDS011;10925;49.102;-0.370;2022-12-18T11:10:01;28.98;;;14.45;;
21527;SDS011;10925;49.102;-0.370;2022-12-18T11:12:26;32.05;;;16.73;;
21527;SDS011;10925;49.102;-0.370;2022-12-18T11:14:55;29.98;;;16.25;;
21527;SDS011;10925;49.102;-0.370;2022-12-18T11:17:26;29.38;;;14.95;;
21527;SDS011;10925;49.102;-0.370;2022-12-18T11:19:55;30.35;;;15.65;;
21527;SDS011;10925;49.102;-0.370;2022-12-18T11:25:18;31.23;;;16.05;;
21527;SDS011;10925;49.102;-0.370;2022-12-18T11:28:02;26.85;;;14.27;;
21527;SDS011;10925;49.102;-0.370;2022-12-18T11:30:30;28.95;;;14.70;;
21527;SDS011;10925;49.102;-0.370;2022-12-18T11:33:10;28.80;;;15.05;;
21527;SDS011;10925;49.102;-0.370;2022-12-18T11:35:57;28.33;;;14.50;;
21527;SDS011;10925;49.102;-0.370;2022-12-18T11:38:26;27.00;;;14.07;;
21527;SDS011;10925;49.102;-0.370;2022-12-18T11:40:55;37.40;;;17.40;;
21527;SDS011;10925;49.102;-0.370;2022-12-18T11:43:34;29.67;;;15.30;;
21527;SDS011;10925;49.102;-0.370;2022-12-18T11:48:34;78.25;;;37.97;;
21527;SDS011;10925;49.102;-0.370;2022-12-18T11:51:05;65.53;;;33.53;;
21527;SDS011;10925;49.102;-0.370;2022-12-18T11:53:37;57.72;;;28.27;;
21527;SDS011;10925;49.102;-0.370;2022-12-18T11:56:05;38.30;;;20.05;;
21527;SDS011;10925;49.102;-0.370;2022-12-18T12:01:37;36.15;;;20.30;;
21527;SDS011;10925;49.102;-0.370;2022-12-18T12:04:17;36.63;;;20.35;;
21527;SDS011;10925;49.102;-0.370;2022-12-18T12:11:50;45.97;;;22.65;;
21527;SDS011;10925;49.102;-0.370;2022-12-18T12:22:11;39.83;;;18.42;;
21527;SDS011;10925;49.102;-0.370;2022-12-18T12:27:37;46.47;;;22.40;;
21527;SDS011;10925;49.102;-0.370;2022-12-18T12:30:07;55.30;;;30.75;;
21527;SDS011;10925;49.102;-0.370;2022-12-18T12:37:39;38.95;;;20.67;;
21527;SDS011;10925;49.102;-0.370;2022-12-18T12:40:07;44.10;;;22.38;;
21527;SDS011;10925;49.102;-0.370;2022-12-18T12:42:59;45.22;;;21.75;;
21527;SDS011;10925;49.102;-0.370;2022-12-18T12:48:13;44.95;;;24.38;;
21527;SDS011;10925;49.102;-0.370;2022-12-18T12:50:40;43.97;;;23.55;;
21527;SDS011;10925;49.102;-0.370;2022-12-18T12:53:08;48.65;;;25.90;;
21527;SDS011;10925;49.102;-0.370;2022-12-18T12:55:38;45.42;;;23.15;;
21527;SDS011;10925;49.102;-0.370;2022-12-18T13:00:39;41.17;;;20.55;;
21527;SDS011;10925;49.102;-0.370;2022-12-18T13:05:53;39.72;;;23.25;;
21527;SDS011;10925;49.102;-0.370;2022-12-18T13:08:25;40.42;;;21.63;;
21527;SDS011;10925;49.102;-0.370;2022-12-18T13:10:53;36.50;;;20.27;;
21527;SDS011;10925;49.102;-0.370;2022-12-18T13:13:51;37.55;;;20.38;;
21527;SDS011;10925;49.102;-0.370;2022-12-18T13:18:51;36.42;;;19.20;;
21527;SDS011;10925;49.102;-0.370;2022-12-18T13:23:42;38.67;;;19.73;;
21527;SDS011;10925;49.102;-0.370;2022-12-18T13:31:08;34.85;;;17.67;;
21527;SDS011;10925;49.102;-0.370;2022-12-18T13:33:45;38.50;;;18.83;;
21527;SDS011;10925;49.102;-0.370;2022-12-18T13:36:32;42.33;;;19.20;;
21527;SDS011;10925;49.102;-0.370;2022-12-18T13:41:45;38.47;;;19.33;;
21527;SDS011;10925;49.102;-0.370;2022-12-18T13:44:54;42.67;;;22.25;;
21527;SDS011;10925;49.102;-0.370;2022-12-18T13:47:04;38.42;;;19.27;;
21527;SDS011;10925;49.102;-0.370;2022-12-18T13:49:37;38.67;;;20.25;;
21527;SDS011;10925;49.102;-0.370;2022-12-18T13:55:01;109.05;;;60.28;;
21527;SDS011;10925;49.102;-0.370;2022-12-18T14:00:51;38.97;;;20.75;;
21527;SDS011;10925;49.102;-0.370;2022-12-18T14:03:20;42.90;;;23.83;;
21527;SDS011;10925;49.102;-0.370;2022-12-18T14:06:21;31.48;;;18.30;;
21527;SDS011;10925;49.102;-0.370;2022-12-18T14:08:40;38.70;;;21.00;;
21527;SDS011;10925;49.102;-0.370;2022-12-18T14:11:06;41.20;;;21.40;;
21527;SDS011;10925;49.102;-0.370;2022-12-18T14:13:37;49.10;;;28.52;;
21527;SDS011;10925;49.102;-0.370;2022-12-18T14:16:05;39.60;;;20.98;;
21527;SDS011;10925;49.102;-0.370;2022-12-18T14:18:46;41.85;;;25.02;;
21527;SDS011;10925;49.102;-0.370;2022-12-18T14:21:29;39.60;;;23.92;;
21527;SDS011;10925;49.102;-0.370;2022-12-18T14:24:06;40.42;;;21.60;;
21527;SDS011;10925;49.102;-0.370;2022-12-18T14:26:32;39.30;;;19.33;;
21527;SDS011;10925;49.102;-0.370;2022-12-18T14:29:11;40.50;;;23.15;;
21527;SDS011;10925;49.102;-0.370;2022-12-18T14:31:44;36.95;;;19.70;;
21527;SDS011;10925;49.102;-0.370;2022-12-18T14:34:17;39.53;;;19.13;;
21527;SDS011;10925;49.102;-0.370;2022-12-18T14:36:51;33.95;;;18.50;;
21527;SDS011;10925;49.102;-0.370;2022-12-18T14:39:18;37.00;;;19.08;;
21527;SDS011;10925;49.102;-0.370;2022-12-18T14:41:48;29.35;;;15.43;;
21527;SDS011;10925;49.102;-0.370;2022-12-18T14:44:15;47.80;;;22.30;;
21527;SDS011;10925;49.102;-0.370;2022-12-18T14:46:42;42.85;;;21.77;;
21527;SDS011;10925;49.102;-0.370;2022-12-18T14:51:52;43.20;;;21.30;;
21527;SDS011;10925;49.102;-0.370;2022-12-18T14:54:19;39.17;;;20.77;;
21527;SDS011;10925;49.102;-0.370;2022-12-18T14:56:47;45.40;;;22.73;;
21527;SDS011;10925;49.102;-0.370;2022-12-18T14:59:15;86.57;;;29.30;;
21527;SDS011;10925;49.102;-0.370;2022-12-18T15:01:55;100.63;;;34.95;;
21527;SDS011;10925;49.102;-0.370;2022-12-18T15:04:28;107.03;;;36.67;;
21527;SDS011;10925;49.102;-0.370;2022-12-18T15:12:41;55.35;;;32.80;;
21527;SDS011;10925;49.102;-0.370;2022-12-18T15:17:57;29.27;;;16.40;;
21527;SDS011;10925;49.102;-0.370;2022-12-18T15:20:24;33.17;;;17.23;;
21527;SDS011;10925;49.102;-0.370;2022-12-18T15:22:51;34.13;;;17.45;;
21527;SDS011;10925;49.102;-0.370;2022-12-18T15:25:29;29.10;;;15.18;;
21527;SDS011;10925;49.102;-0.370;2022-12-18T15:27:57;26.27;;;12.73;;
21527;SDS011;10925;49.102;-0.370;2022-12-18T15:30:24;25.80;;;12.73;;
21527;SDS011;10925;49.102;-0.370;2022-12-18T15:32:51;30.02;;;14.98;;
21527;SDS011;10925;49.102;-0.370;2022-12-18T15:37:43;24.98;;;13.18;;
21527;SDS011;10925;49.102;-0.370;2022-12-18T15:40:13;29.85;;;14.25;;
21527;SDS011;10925;49.102;-0.370;2022-12-18T15:42:39;20.60;;;11.60;;
21527;SDS011;10925;49.102;-0.370;2022-12-18T15:45:23;20.88;;;11.57;;
21527;SDS011;10925;49.102;-0.370;2022-12-18T15:47:56;20.60;;;11.38;;
21527;SDS011;10925;49.102;-0.370;2022-12-18T15:50:21;21.08;;;11.57;;
21527;SDS011;10925;49.102;-0.370;2022-12-18T15:52:49;17.88;;;11.48;;
21527;SDS011;10925;49.102;-0.370;2022-12-18T15:55:20;18.52;;;10.63;;
21527;SDS011;10925;49.102;-0.370;2022-12-18T15:58:04;18.67;;;10.48;;
21527;SDS011;10925;49.102;-0.370;2022-12-18T16:00:35;14.48;;;8.52;;
21527;SDS011;10925;49.102;-0.370;2022-12-18T16:03:03;15.52;;;8.52;;
21527;SDS011;10925;49.102;-0.370;2022-12-18T16:05:30;15.13;;;8.82;;
21527;SDS011;10925;49.102;-0.370;2022-12-18T16:07:56;13.13;;;7.38;;
21527;SDS011;10925;49.102;-0.370;2022-12-18T16:10:21;11.48;;;7.45;;
21527;SDS011;10925;49.102;-0.370;2022-12-18T16:12:49;16.13;;;7.75;;
21527;SDS011;10925;49.102;-0.370;2022-12-18T16:15:16;16.30;;;8.95;;
21527;SDS011;10925;49.102;-0.370;2022-12-18T16:17:46;11.40;;;8.02;;
21527;SDS011;10925;49.102;-0.370;2022-12-18T16:20:14;14.82;;;8.57;;
21527;SDS011;10925;49.102;-0.370;2022-12-18T16:22:42;12.73;;;7.75;;